sensor_id;sensor_type;location;lat;lon;timestamp;P1;durP1;ratioP1;P2;durP2;ratioP2
24425;SDS011;12611;44.446;26.000;2022-10-16T00:01:15;17.60;;;9.77;;
24425;SDS011;12611;44.446;26.000;2022-10-16T00:03:45;16.60;;;9.63;;
24425;SDS011;12611;44.446;26.000;2022-10-16T00:06:14;21.30;;;10.57;;
24425;SDS011;12611;44.446;26.000;2022-10-16T00:08:44;19.47;;;11.07;;
24425;SDS011;12611;44.446;26.000;2022-10-16T00:11:13;18.50;;;10.37;;
24425;SDS011;12611;44.446;26.000;2022-10-16T00:13:46;20.67;;;10.57;;
24425;SDS011;12611;44.446;26.000;2022-10-16T00:16:16;25.07;;;11.57;;
24425;SDS011;12611;44.446;26.000;2022-10-16T00:18:45;18.70;;;10.60;;
24425;SDS011;12611;44.446;26.000;2022-10-16T00:21:15;24.83;;;11.13;;
24425;SDS011;12611;44.446;26.000;2022-10-16T00:23:44;25.43;;;11.20;;
24425;SDS011;12611;44.446;26.000;2022-10-16T00:26:13;24.90;;;10.70;;
24425;SDS011;12611;44.446;26.000;2022-10-16T00:28:46;19.50;;;10.27;;
24425;SDS011;12611;44.446;26.000;2022-10-16T00:31:16;20.17;;;11.00;;
24425;SDS011;12611;44.446;26.000;2022-10-16T00:33:45;19.63;;;10.67;;
24425;SDS011;12611;44.446;26.000;2022-10-16T00:36:15;18.27;;;10.27;;
24425;SDS011;12611;44.446;26.000;2022-10-16T00:38:44;23.40;;;9.97;;
24425;SDS011;12611;44.446;26.000;2022-10-16T00:41:13;21.17;;;11.23;;
24425;SDS011;12611;44.446;26.000;2022-10-16T00:43:43;21.83;;;11.10;;
24425;SDS011;12611;44.446;26.000;2022-10-16T00:46:15;20.43;;;10.87;;
24425;SDS011;12611;44.446;26.000;2022-10-16T00:48:47;22.83;;;11.50;;
24425;SDS011;12611;44.446;26.000;2022-10-16T00:51:19;22.50;;;11.03;;
24425;SDS011;12611;44.446;26.000;2022-10-16T00:53:52;23.37;;;10.70;;
24425;SDS011;12611;44.446;26.000;2022-10-16T00:56:22;20.13;;;11.07;;
24425;SDS011;12611;44.446;26.000;2022-10-16T00:58:51;18.60;;;11.70;;
24425;SDS011;12611;44.446;26.000;2022-10-16T01:01:20;18.23;;;10.43;;
24425;SDS011;12611;44.446;26.000;2022-10-16T01:03:48;17.33;;;10.70;;
24425;SDS011;12611;44.446;26.000;2022-10-16T01:06:22;20.73;;;11.40;;
24425;SDS011;12611;44.446;26.000;2022-10-16T01:08:55;22.57;;;11.10;;
24425;SDS011;12611;44.446;26.000;2022-10-16T01:11:32;26.83;;;12.00;;
24425;SDS011;12611;44.446;26.000;2022-10-16T01:14:11;23.73;;;11.40;;
24425;SDS011;12611;44.446;26.000;2022-10-16T01:16:48;25.43;;;12.00;;
24425;SDS011;12611;44.446;26.000;2022-10-16T01:19:26;26.33;;;10.70;;
24425;SDS011;12611;44.446;26.000;2022-10-16T01:22:04;23.77;;;10.93;;
24425;SDS011;12611;44.446;26.000;2022-10-16T01:24:39;19.83;;;10.87;;
24425;SDS011;12611;44.446;26.000;2022-10-16T01:27:11;20.47;;;11.20;;
24425;SDS011;12611;44.446;26.000;2022-10-16T01:29:42;20.27;;;11.47;;
24425;SDS011;12611;44.446;26.000;2022-10-16T01:32:18;26.27;;;11.83;;
24425;SDS011;12611;44.446;26.000;2022-10-16T01:34:50;19.83;;;11.40;;
24425;SDS011;12611;44.446;26.000;2022-10-16T01:37:25;22.13;;;11.13;;
24425;SDS011;12611;44.446;26.000;2022-10-16T01:40:00;20.67;;;11.20;;
24425;SDS011;12611;44.446;26.000;2022-10-16T01:42:36;18.53;;;10.53;;
24425;SDS011;12611;44.446;26.000;2022-10-16T01:45:07;19.13;;;10.90;;
24425;SDS011;12611;44.446;26.000;2022-10-16T01:47:39;19.20;;;11.40;;
24425;SDS011;12611;44.446;26.000;2022-10-16T01:50:10;19.93;;;11.33;;
24425;SDS011;12611;44.446;26.000;2022-10-16T01:52:40;22.57;;;11.43;;
24425;SDS011;12611;44.446;26.000;2022-10-16T01:55:13;23.10;;;12.47;;
24425;SDS011;12611;44.446;26.000;2022-10-16T01:57:46;23.73;;;12.03;;
24425;SDS011;12611;44.446;26.000;2022-10-16T02:00:17;20.27;;;12.00;;
24425;SDS011;12611;44.446;26.000;2022-10-16T02:02:48;19.30;;;10.63;;
24425;SDS011;12611;44.446;26.000;2022-10-16T02:05:20;28.07;;;15.00;;
24425;SDS011;12611;44.446;26.000;2022-10-16T02:07:52;28.00;;;15.60;;
24425;SDS011;12611;44.446;26.000;2022-10-16T02:10:24;27.47;;;16.03;;
24425;SDS011;12611;44.446;26.000;2022-10-16T02:13:01;29.37;;;16.00;;
24425;SDS011;12611;44.446;26.000;2022-10-16T02:15:32;26.43;;;14.17;;
24425;SDS011;12611;44.446;26.000;2022-10-16T02:18:01;23.63;;;12.80;;
24425;SDS011;12611;44.446;26.000;2022-10-16T02:20:31;23.23;;;11.90;;
24425;SDS011;12611;44.446;26.000;2022-10-16T02:23:01;19.50;;;10.97;;
24425;SDS011;12611;44.446;26.000;2022-10-16T02:25:32;20.00;;;12.17;;
24425;SDS011;12611;44.446;26.000;2022-10-16T02:28:06;20.83;;;10.87;;
24425;SDS011;12611;44.446;26.000;2022-10-16T02:30:40;18.90;;;10.63;;
24425;SDS011;12611;44.446;26.000;2022-10-16T02:33:13;20.20;;;10.43;;
24425;SDS011;12611;44.446;26.000;2022-10-16T02:35:43;18.23;;;10.57;;
24425;SDS011;12611;44.446;26.000;2022-10-16T02:38:14;24.93;;;11.20;;
24425;SDS011;12611;44.446;26.000;2022-10-16T02:40:43;17.37;;;10.33;;
24425;SDS011;12611;44.446;26.000;2022-10-16T02:43:13;19.77;;;10.00;;
24425;SDS011;12611;44.446;26.000;2022-10-16T02:45:42;19.90;;;10.20;;
24425;SDS011;12611;44.446;26.000;2022-10-16T02:48:10;17.13;;;10.60;;
24425;SDS011;12611;44.446;26.000;2022-10-16T02:50:38;24.00;;;11.50;;
24425;SDS011;12611;44.446;26.000;2022-10-16T02:53:09;20.63;;;11.00;;
24425;SDS011;12611;44.446;26.000;2022-10-16T02:55:38;19.70;;;10.47;;
24425;SDS011;12611;44.446;26.000;2022-10-16T02:58:06;20.57;;;10.40;;
24425;SDS011;12611;44.446;26.000;2022-10-16T03:00:36;20.20;;;10.20;;
24425;SDS011;12611;44.446;26.000;2022-10-16T03:03:04;21.30;;;10.60;;
24425;SDS011;12611;44.446;26.000;2022-10-16T03:05:32;19.77;;;10.20;;
24425;SDS011;12611;44.446;26.000;2022-10-16T03:08:00;18.93;;;10.40;;
24425;SDS011;12611;44.446;26.000;2022-10-16T03:10:28;18.33;;;9.83;;
24425;SDS011;12611;44.446;26.000;2022-10-16T03:12:57;17.03;;;9.23;;
24425;SDS011;12611;44.446;26.000;2022-10-16T03:15:25;25.17;;;11.33;;
24425;SDS011;12611;44.446;26.000;2022-10-16T03:17:56;20.93;;;10.90;;
24425;SDS011;12611;44.446;26.000;2022-10-16T03:20:25;20.73;;;10.90;;
24425;SDS011;12611;44.446;26.000;2022-10-16T03:22:53;18.50;;;10.40;;
24425;SDS011;12611;44.446;26.000;2022-10-16T03:25:22;16.27;;;9.73;;
24425;SDS011;12611;44.446;26.000;2022-10-16T03:27:50;19.53;;;9.80;;
24425;SDS011;12611;44.446;26.000;2022-10-16T03:30:19;16.03;;;9.13;;
24425;SDS011;12611;44.446;26.000;2022-10-16T03:32:48;19.70;;;9.70;;
24425;SDS011;12611;44.446;26.000;2022-10-16T03:35:21;19.07;;;9.60;;
24425;SDS011;12611;44.446;26.000;2022-10-16T03:37:50;19.33;;;9.47;;
24425;SDS011;12611;44.446;26.000;2022-10-16T03:40:19;20.10;;;10.33;;
24425;SDS011;12611;44.446;26.000;2022-10-16T03:42:47;17.97;;;8.90;;
24425;SDS011;12611;44.446;26.000;2022-10-16T03:45:16;18.83;;;9.97;;
24425;SDS011;12611;44.446;26.000;2022-10-16T03:47:44;18.97;;;9.47;;
24425;SDS011;12611;44.446;26.000;2022-10-16T03:50:13;18.63;;;9.83;;
24425;SDS011;12611;44.446;26.000;2022-10-16T03:52:47;17.53;;;8.83;;
24425;SDS011;12611;44.446;26.000;2022-10-16T03:55:21;17.67;;;10.00;;
24425;SDS011;12611;44.446;26.000;2022-10-16T03:57:49;17.97;;;9.73;;
24425;SDS011;12611;44.446;26.000;2022-10-16T04:00:17;14.50;;;8.83;;
24425;SDS011;12611;44.446;26.000;2022-10-16T04:02:46;18.27;;;8.67;;
24425;SDS011;12611;44.446;26.000;2022-10-16T04:05:14;18.03;;;10.33;;
24425;SDS011;12611;44.446;26.000;2022-10-16T04:07:44;16.07;;;9.27;;
24425;SDS011;12611;44.446;26.000;2022-10-16T04:10:12;18.50;;;9.23;;
24425;SDS011;12611;44.446;26.000;2022-10-16T04:12:40;17.97;;;9.70;;
24425;SDS011;12611;44.446;26.000;2022-10-16T04:15:08;20.03;;;8.53;;
24425;SDS011;12611;44.446;26.000;2022-10-16T04:17:37;17.27;;;8.87;;
24425;SDS011;12611;44.446;26.000;2022-10-16T04:20:05;19.63;;;9.97;;
24425;SDS011;12611;44.446;26.000;2022-10-16T04:22:34;18.50;;;9.73;;
24425;SDS011;12611;44.446;26.000;2022-10-16T04:25:05;17.83;;;8.80;;
24425;SDS011;12611;44.446;26.000;2022-10-16T04:27:33;20.33;;;9.70;;
24425;SDS011;12611;44.446;26.000;2022-10-16T04:30:01;17.47;;;9.10;;
24425;SDS011;12611;44.446;26.000;2022-10-16T04:32:30;18.13;;;8.87;;
24425;SDS011;12611;44.446;26.000;2022-10-16T04:34:58;16.07;;;9.53;;
24425;SDS011;12611;44.446;26.000;2022-10-16T04:37:27;16.43;;;8.80;;
24425;SDS011;12611;44.446;26.000;2022-10-16T04:39:55;19.23;;;8.80;;
24425;SDS011;12611;44.446;26.000;2022-10-16T04:42:25;18.43;;;8.30;;
24425;SDS011;12611;44.446;26.000;2022-10-16T04:44:53;15.30;;;8.73;;
24425;SDS011;12611;44.446;26.000;2022-10-16T04:47:21;16.60;;;8.40;;
24425;SDS011;12611;44.446;26.000;2022-10-16T04:49:50;17.37;;;9.10;;
24425;SDS011;12611;44.446;26.000;2022-10-16T04:52:18;16.33;;;8.53;;
24425;SDS011;12611;44.446;26.000;2022-10-16T04:54:47;16.73;;;9.57;;
24425;SDS011;12611;44.446;26.000;2022-10-16T04:57:16;18.13;;;8.67;;
24425;SDS011;12611;44.446;26.000;2022-10-16T04:59:46;17.77;;;10.90;;
24425;SDS011;12611;44.446;26.000;2022-10-16T05:02:14;21.00;;;11.33;;
24425;SDS011;12611;44.446;26.000;2022-10-16T05:04:42;20.87;;;11.00;;
24425;SDS011;12611;44.446;26.000;2022-10-16T05:07:11;18.13;;;10.40;;
24425;SDS011;12611;44.446;26.000;2022-10-16T05:09:39;23.87;;;11.27;;
24425;SDS011;12611;44.446;26.000;2022-10-16T05:12:07;25.53;;;12.80;;
24425;SDS011;12611;44.446;26.000;2022-10-16T05:14:36;26.50;;;12.23;;
24425;SDS011;12611;44.446;26.000;2022-10-16T05:17:05;21.37;;;11.73;;
24425;SDS011;12611;44.446;26.000;2022-10-16T05:19:33;18.97;;;10.37;;
24425;SDS011;12611;44.446;26.000;2022-10-16T05:22:02;19.80;;;10.53;;
24425;SDS011;12611;44.446;26.000;2022-10-16T05:24:30;22.47;;;9.23;;
24425;SDS011;12611;44.446;26.000;2022-10-16T05:26:58;16.37;;;9.47;;
24425;SDS011;12611;44.446;26.000;2022-10-16T05:29:27;20.40;;;10.03;;
24425;SDS011;12611;44.446;26.000;2022-10-16T05:31:55;23.93;;;9.80;;
24425;SDS011;12611;44.446;26.000;2022-10-16T05:34:24;19.77;;;9.33;;
24425;SDS011;12611;44.446;26.000;2022-10-16T05:36:53;16.10;;;8.80;;
24425;SDS011;12611;44.446;26.000;2022-10-16T05:39:21;16.33;;;9.17;;
24425;SDS011;12611;44.446;26.000;2022-10-16T05:41:49;15.60;;;8.97;;
24425;SDS011;12611;44.446;26.000;2022-10-16T05:44:18;19.10;;;8.63;;
24425;SDS011;12611;44.446;26.000;2022-10-16T05:46:46;15.60;;;8.10;;
24425;SDS011;12611;44.446;26.000;2022-10-16T05:49:15;16.23;;;9.10;;
24425;SDS011;12611;44.446;26.000;2022-10-16T05:51:45;15.67;;;8.93;;
24425;SDS011;12611;44.446;26.000;2022-10-16T05:54:13;22.27;;;9.63;;
24425;SDS011;12611;44.446;26.000;2022-10-16T05:56:41;19.53;;;8.87;;
24425;SDS011;12611;44.446;26.000;2022-10-16T05:59:10;15.43;;;8.70;;
24425;SDS011;12611;44.446;26.000;2022-10-16T06:01:38;12.83;;;7.63;;
24425;SDS011;12611;44.446;26.000;2022-10-16T06:04:07;14.93;;;8.20;;
24425;SDS011;12611;44.446;26.000;2022-10-16T06:06:36;13.90;;;8.37;;
24425;SDS011;12611;44.446;26.000;2022-10-16T06:09:06;15.20;;;8.70;;
24425;SDS011;12611;44.446;26.000;2022-10-16T06:11:35;15.27;;;7.43;;
24425;SDS011;12611;44.446;26.000;2022-10-16T06:14:04;16.83;;;8.03;;
24425;SDS011;12611;44.446;26.000;2022-10-16T06:16:34;15.53;;;7.77;;
24425;SDS011;12611;44.446;26.000;2022-10-16T06:19:03;15.20;;;8.57;;
24425;SDS011;12611;44.446;26.000;2022-10-16T06:21:32;15.00;;;7.30;;
24425;SDS011;12611;44.446;26.000;2022-10-16T06:24:01;15.90;;;7.47;;
24425;SDS011;12611;44.446;26.000;2022-10-16T06:26:31;13.07;;;7.50;;
24425;SDS011;12611;44.446;26.000;2022-10-16T06:28:59;6.77;;;4.87;;
24425;SDS011;12611;44.446;26.000;2022-10-16T06:31:28;9.50;;;5.07;;
24425;SDS011;12611;44.446;26.000;2022-10-16T06:33:57;10.80;;;4.67;;
24425;SDS011;12611;44.446;26.000;2022-10-16T06:36:26;9.87;;;4.77;;
24425;SDS011;12611;44.446;26.000;2022-10-16T06:38:54;9.80;;;4.87;;
24425;SDS011;12611;44.446;26.000;2022-10-16T06:41:23;8.60;;;4.40;;
24425;SDS011;12611;44.446;26.000;2022-10-16T06:43:52;9.43;;;4.77;;
24425;SDS011;12611;44.446;26.000;2022-10-16T06:46:22;11.23;;;4.70;;
24425;SDS011;12611;44.446;26.000;2022-10-16T06:48:52;12.83;;;5.57;;
24425;SDS011;12611;44.446;26.000;2022-10-16T06:51:21;10.13;;;4.37;;
24425;SDS011;12611;44.446;26.000;2022-10-16T06:53:51;8.97;;;4.47;;
24425;SDS011;12611;44.446;26.000;2022-10-16T06:56:30;7.97;;;4.40;;
24425;SDS011;12611;44.446;26.000;2022-10-16T06:59:01;11.03;;;4.20;;
24425;SDS011;12611;44.446;26.000;2022-10-16T07:01:30;9.00;;;4.50;;
24425;SDS011;12611;44.446;26.000;2022-10-16T07:03:59;6.20;;;4.10;;
24425;SDS011;12611;44.446;26.000;2022-10-16T07:06:30;6.97;;;4.13;;
24425;SDS011;12611;44.446;26.000;2022-10-16T07:09:01;7.40;;;4.20;;
24425;SDS011;12611;44.446;26.000;2022-10-16T07:11:32;9.07;;;4.23;;
24425;SDS011;12611;44.446;26.000;2022-10-16T07:14:03;8.83;;;4.20;;
24425;SDS011;12611;44.446;26.000;2022-10-16T07:16:32;11.63;;;4.37;;
24425;SDS011;12611;44.446;26.000;2022-10-16T07:19:01;6.47;;;3.87;;
24425;SDS011;12611;44.446;26.000;2022-10-16T07:21:30;8.73;;;3.97;;
24425;SDS011;12611;44.446;26.000;2022-10-16T07:24:02;9.97;;;4.60;;
24425;SDS011;12611;44.446;26.000;2022-10-16T07:26:33;9.00;;;4.13;;
24425;SDS011;12611;44.446;26.000;2022-10-16T07:29:04;8.17;;;4.07;;
24425;SDS011;12611;44.446;26.000;2022-10-16T07:31:32;8.13;;;4.30;;
24425;SDS011;12611;44.446;26.000;2022-10-16T07:34:01;6.63;;;3.97;;
24425;SDS011;12611;44.446;26.000;2022-10-16T07:36:29;8.03;;;4.17;;
24425;SDS011;12611;44.446;26.000;2022-10-16T07:38:57;8.30;;;4.13;;
24425;SDS011;12611;44.446;26.000;2022-10-16T07:41:26;9.60;;;4.00;;
24425;SDS011;12611;44.446;26.000;2022-10-16T07:43:55;5.00;;;3.30;;
24425;SDS011;12611;44.446;26.000;2022-10-16T07:46:28;6.03;;;3.40;;
24425;SDS011;12611;44.446;26.000;2022-10-16T07:48:56;5.77;;;3.70;;
24425;SDS011;12611;44.446;26.000;2022-10-16T07:51:25;7.30;;;3.80;;
24425;SDS011;12611;44.446;26.000;2022-10-16T07:53:54;10.47;;;3.43;;
24425;SDS011;12611;44.446;26.000;2022-10-16T07:56:22;10.73;;;4.67;;
24425;SDS011;12611;44.446;26.000;2022-10-16T07:58:51;9.60;;;3.53;;
24425;SDS011;12611;44.446;26.000;2022-10-16T08:01:19;7.80;;;3.70;;
24425;SDS011;12611;44.446;26.000;2022-10-16T08:03:51;8.77;;;4.07;;
24425;SDS011;12611;44.446;26.000;2022-10-16T08:06:20;5.40;;;3.30;;
24425;SDS011;12611;44.446;26.000;2022-10-16T08:08:53;5.03;;;3.53;;
24425;SDS011;12611;44.446;26.000;2022-10-16T08:11:22;9.97;;;3.50;;
24425;SDS011;12611;44.446;26.000;2022-10-16T08:13:51;9.97;;;3.60;;
24425;SDS011;12611;44.446;26.000;2022-10-16T08:16:19;9.00;;;3.43;;
24425;SDS011;12611;44.446;26.000;2022-10-16T08:18:49;8.13;;;3.90;;
24425;SDS011;12611;44.446;26.000;2022-10-16T08:21:18;7.97;;;3.73;;
24425;SDS011;12611;44.446;26.000;2022-10-16T08:23:49;7.90;;;3.73;;
24425;SDS011;12611;44.446;26.000;2022-10-16T08:26:23;5.53;;;3.20;;
24425;SDS011;12611;44.446;26.000;2022-10-16T08:28:53;7.20;;;3.80;;
24425;SDS011;12611;44.446;26.000;2022-10-16T08:31:22;6.80;;;3.57;;
24425;SDS011;12611;44.446;26.000;2022-10-16T08:33:54;7.53;;;3.80;;
24425;SDS011;12611;44.446;26.000;2022-10-16T08:36:22;6.13;;;4.10;;
24425;SDS011;12611;44.446;26.000;2022-10-16T08:38:51;9.43;;;3.70;;
24425;SDS011;12611;44.446;26.000;2022-10-16T08:41:23;8.83;;;4.07;;
24425;SDS011;12611;44.446;26.000;2022-10-16T08:46:53;8.73;;;4.80;;
24425;SDS011;12611;44.446;26.000;2022-10-16T08:49:31;7.67;;;3.60;;
24425;SDS011;12611;44.446;26.000;2022-10-16T08:52:00;9.80;;;4.17;;
24425;SDS011;12611;44.446;26.000;2022-10-16T08:54:29;7.17;;;3.77;;
24425;SDS011;12611;44.446;26.000;2022-10-16T08:57:07;7.87;;;4.10;;
24425;SDS011;12611;44.446;26.000;2022-10-16T08:59:37;9.83;;;4.10;;
24425;SDS011;12611;44.446;26.000;2022-10-16T09:02:12;11.60;;;4.13;;
24425;SDS011;12611;44.446;26.000;2022-10-16T09:07:50;16.73;;;5.00;;
24425;SDS011;12611;44.446;26.000;2022-10-16T09:10:34;8.60;;;3.97;;
24425;SDS011;12611;44.446;26.000;2022-10-16T09:13:15;8.83;;;4.33;;
24425;SDS011;12611;44.446;26.000;2022-10-16T09:19:13;10.20;;;5.57;;
24425;SDS011;12611;44.446;26.000;2022-10-16T09:21:48;9.73;;;5.97;;
24425;SDS011;12611;44.446;26.000;2022-10-16T09:24:19;9.50;;;6.03;;
24425;SDS011;12611;44.446;26.000;2022-10-16T09:26:54;10.50;;;6.30;;
24425;SDS011;12611;44.446;26.000;2022-10-16T09:29:22;12.87;;;7.63;;
24425;SDS011;12611;44.446;26.000;2022-10-16T09:31:51;10.57;;;7.00;;
24425;SDS011;12611;44.446;26.000;2022-10-16T09:34:23;15.17;;;6.80;;
24425;SDS011;12611;44.446;26.000;2022-10-16T09:36:59;12.88;;;6.70;;
24425;SDS011;12611;44.446;26.000;2022-10-16T09:39:41;11.00;;;6.37;;
24425;SDS011;12611;44.446;26.000;2022-10-16T09:42:16;8.90;;;5.80;;
24425;SDS011;12611;44.446;26.000;2022-10-16T09:44:47;9.27;;;5.87;;
24425;SDS011;12611;44.446;26.000;2022-10-16T09:47:18;12.67;;;5.80;;
24425;SDS011;12611;44.446;26.000;2022-10-16T09:49:52;13.17;;;6.47;;
24425;SDS011;12611;44.446;26.000;2022-10-16T09:52:24;12.37;;;6.27;;
24425;SDS011;12611;44.446;26.000;2022-10-16T09:54:53;10.13;;;6.20;;
24425;SDS011;12611;44.446;26.000;2022-10-16T09:57:23;10.27;;;6.07;;
24425;SDS011;12611;44.446;26.000;2022-10-16T09:59:52;11.23;;;6.30;;
24425;SDS011;12611;44.446;26.000;2022-10-16T10:02:25;11.77;;;6.20;;
24425;SDS011;12611;44.446;26.000;2022-10-16T10:04:56;13.53;;;6.30;;
24425;SDS011;12611;44.446;26.000;2022-10-16T10:07:27;12.40;;;6.60;;
24425;SDS011;12611;44.446;26.000;2022-10-16T10:09:59;12.80;;;6.67;;
24425;SDS011;12611;44.446;26.000;2022-10-16T10:12:30;10.63;;;6.30;;
24425;SDS011;12611;44.446;26.000;2022-10-16T10:15:03;11.33;;;6.53;;
24425;SDS011;12611;44.446;26.000;2022-10-16T10:17:44;9.83;;;6.63;;
24425;SDS011;12611;44.446;26.000;2022-10-16T10:20:18;10.10;;;6.77;;
24425;SDS011;12611;44.446;26.000;2022-10-16T10:22:52;14.47;;;8.03;;
24425;SDS011;12611;44.446;26.000;2022-10-16T10:25:27;11.23;;;6.50;;
24425;SDS011;12611;44.446;26.000;2022-10-16T10:31:20;12.53;;;7.40;;
24425;SDS011;12611;44.446;26.000;2022-10-16T10:33:53;13.23;;;7.60;;
24425;SDS011;12611;44.446;26.000;2022-10-16T10:36:28;16.07;;;6.77;;
24425;SDS011;12611;44.446;26.000;2022-10-16T10:39:02;12.40;;;6.70;;
24425;SDS011;12611;44.446;26.000;2022-10-16T10:47:35;12.47;;;6.23;;
24425;SDS011;12611;44.446;26.000;2022-10-16T10:50:12;14.57;;;6.93;;
24425;SDS011;12611;44.446;26.000;2022-10-16T10:52:51;10.90;;;7.30;;
24425;SDS011;12611;44.446;26.000;2022-10-16T10:55:28;12.73;;;7.20;;
24425;SDS011;12611;44.446;26.000;2022-10-16T10:58:19;14.97;;;6.80;;
24425;SDS011;12611;44.446;26.000;2022-10-16T11:01:04;12.00;;;7.00;;
24425;SDS011;12611;44.446;26.000;2022-10-16T11:03:42;9.90;;;6.37;;
24425;SDS011;12611;44.446;26.000;2022-10-16T11:06:26;12.47;;;6.77;;
24425;SDS011;12611;44.446;26.000;2022-10-16T11:08:58;12.50;;;6.57;;
24425;SDS011;12611;44.446;26.000;2022-10-16T11:11:31;11.53;;;6.70;;
24425;SDS011;12611;44.446;26.000;2022-10-16T11:14:04;15.83;;;7.07;;
24425;SDS011;12611;44.446;26.000;2022-10-16T11:16:38;10.83;;;6.40;;
24425;SDS011;12611;44.446;26.000;2022-10-16T11:19:14;10.63;;;6.17;;
24425;SDS011;12611;44.446;26.000;2022-10-16T11:21:54;9.37;;;6.00;;
24425;SDS011;12611;44.446;26.000;2022-10-16T11:24:32;9.57;;;6.50;;
24425;SDS011;12611;44.446;26.000;2022-10-16T11:27:07;15.97;;;8.50;;
24425;SDS011;12611;44.446;26.000;2022-10-16T11:29:44;12.40;;;7.00;;
24425;SDS011;12611;44.446;26.000;2022-10-16T11:32:19;11.27;;;7.20;;
24425;SDS011;12611;44.446;26.000;2022-10-16T11:34:52;10.43;;;6.37;;
24425;SDS011;12611;44.446;26.000;2022-10-16T11:37:25;10.70;;;6.90;;
24425;SDS011;12611;44.446;26.000;2022-10-16T11:39:58;11.60;;;6.43;;
24425;SDS011;12611;44.446;26.000;2022-10-16T11:42:39;12.57;;;6.30;;
24425;SDS011;12611;44.446;26.000;2022-10-16T11:45:17;8.60;;;5.77;;
24425;SDS011;12611;44.446;26.000;2022-10-16T11:47:57;14.13;;;7.67;;
24425;SDS011;12611;44.446;26.000;2022-10-16T11:50:31;11.13;;;6.50;;
24425;SDS011;12611;44.446;26.000;2022-10-16T11:53:04;11.37;;;6.17;;
24425;SDS011;12611;44.446;26.000;2022-10-16T11:55:42;9.20;;;5.90;;
24425;SDS011;12611;44.446;26.000;2022-10-16T11:58:15;10.57;;;6.30;;
24425;SDS011;12611;44.446;26.000;2022-10-16T12:00:52;8.83;;;6.37;;
24425;SDS011;12611;44.446;26.000;2022-10-16T12:03:28;11.57;;;6.83;;
24425;SDS011;12611;44.446;26.000;2022-10-16T12:06:02;8.47;;;5.80;;
24425;SDS011;12611;44.446;26.000;2022-10-16T12:08:41;9.80;;;6.33;;
24425;SDS011;12611;44.446;26.000;2022-10-16T12:11:22;16.00;;;7.73;;
24425;SDS011;12611;44.446;26.000;2022-10-16T12:14:06;9.67;;;6.30;;
24425;SDS011;12611;44.446;26.000;2022-10-16T12:16:53;10.37;;;6.00;;
24425;SDS011;12611;44.446;26.000;2022-10-16T12:19:24;11.07;;;6.17;;
24425;SDS011;12611;44.446;26.000;2022-10-16T12:21:54;12.77;;;6.13;;
24425;SDS011;12611;44.446;26.000;2022-10-16T12:24:31;13.90;;;6.50;;
24425;SDS011;12611;44.446;26.000;2022-10-16T12:27:02;9.73;;;5.70;;
24425;SDS011;12611;44.446;26.000;2022-10-16T12:29:35;12.20;;;6.03;;
24425;SDS011;12611;44.446;26.000;2022-10-16T12:32:05;9.50;;;5.70;;
24425;SDS011;12611;44.446;26.000;2022-10-16T12:35:16;9.23;;;5.27;;
24425;SDS011;12611;44.446;26.000;2022-10-16T12:37:47;10.70;;;5.85;;
24425;SDS011;12611;44.446;26.000;2022-10-16T12:40:22;11.55;;;6.13;;
24425;SDS011;12611;44.446;26.000;2022-10-16T12:42:54;11.63;;;5.47;;
24425;SDS011;12611;44.446;26.000;2022-10-16T12:45:26;8.50;;;5.45;;
24425;SDS011;12611;44.446;26.000;2022-10-16T12:47:58;8.73;;;5.15;;
24425;SDS011;12611;44.446;26.000;2022-10-16T12:50:32;9.52;;;5.40;;
24425;SDS011;12611;44.446;26.000;2022-10-16T12:53:03;8.63;;;5.70;;
24425;SDS011;12611;44.446;26.000;2022-10-16T12:55:47;14.32;;;5.05;;
24425;SDS011;12611;44.446;26.000;2022-10-16T12:58:27;12.07;;;5.38;;
24425;SDS011;12611;44.446;26.000;2022-10-16T13:01:18;11.00;;;5.72;;
24425;SDS011;12611;44.446;26.000;2022-10-16T13:06:49;14.57;;;5.55;;
24425;SDS011;12611;44.446;26.000;2022-10-16T13:09:35;9.93;;;5.00;;
24425;SDS011;12611;44.446;26.000;2022-10-16T13:12:14;11.38;;;5.15;;
24425;SDS011;12611;44.446;26.000;2022-10-16T13:15:01;7.53;;;5.22;;
24425;SDS011;12611;44.446;26.000;2022-10-16T13:17:47;8.75;;;5.20;;
24425;SDS011;12611;44.446;26.000;2022-10-16T13:20:23;13.57;;;5.68;;
24425;SDS011;12611;44.446;26.000;2022-10-16T13:22:59;12.60;;;5.72;;
24425;SDS011;12611;44.446;26.000;2022-10-16T13:25:40;9.55;;;5.40;;
24425;SDS011;12611;44.446;26.000;2022-10-16T13:28:21;8.43;;;4.82;;
24425;SDS011;12611;44.446;26.000;2022-10-16T13:30:55;10.65;;;5.05;;
24425;SDS011;12611;44.446;26.000;2022-10-16T13:33:30;8.35;;;4.45;;
24425;SDS011;12611;44.446;26.000;2022-10-16T13:36:02;8.77;;;4.60;;
24425;SDS011;12611;44.446;26.000;2022-10-16T13:38:32;12.10;;;5.47;;
24425;SDS011;12611;44.446;26.000;2022-10-16T13:41:02;11.65;;;5.55;;
24425;SDS011;12611;44.446;26.000;2022-10-16T13:43:33;11.85;;;5.30;;
24425;SDS011;12611;44.446;26.000;2022-10-16T13:46:04;9.65;;;5.60;;
24425;SDS011;12611;44.446;26.000;2022-10-16T13:48:35;8.55;;;4.97;;
24425;SDS011;12611;44.446;26.000;2022-10-16T13:51:04;8.30;;;4.65;;
24425;SDS011;12611;44.446;26.000;2022-10-16T13:53:34;9.48;;;4.97;;
24425;SDS011;12611;44.446;26.000;2022-10-16T13:56:04;9.52;;;5.13;;
24425;SDS011;12611;44.446;26.000;2022-10-16T13:58:34;8.40;;;5.40;;
24425;SDS011;12611;44.446;26.000;2022-10-16T14:01:02;10.77;;;5.83;;
24425;SDS011;12611;44.446;26.000;2022-10-16T14:03:33;7.78;;;5.18;;
24425;SDS011;12611;44.446;26.000;2022-10-16T14:06:04;8.27;;;5.03;;
24425;SDS011;12611;44.446;26.000;2022-10-16T14:08:40;12.10;;;5.50;;
24425;SDS011;12611;44.446;26.000;2022-10-16T14:11:12;9.55;;;5.97;;
24425;SDS011;12611;44.446;26.000;2022-10-16T14:13:43;10.80;;;5.57;;
24425;SDS011;12611;44.446;26.000;2022-10-16T14:16:16;15.73;;;6.23;;
24425;SDS011;12611;44.446;26.000;2022-10-16T14:18:49;8.38;;;4.47;;
24425;SDS011;12611;44.446;26.000;2022-10-16T14:21:26;8.40;;;5.33;;
24425;SDS011;12611;44.446;26.000;2022-10-16T14:23:55;8.27;;;4.60;;
24425;SDS011;12611;44.446;26.000;2022-10-16T14:26:25;10.80;;;5.87;;
24425;SDS011;12611;44.446;26.000;2022-10-16T14:29:02;9.23;;;5.07;;
24425;SDS011;12611;44.446;26.000;2022-10-16T14:31:38;10.93;;;4.63;;
24425;SDS011;12611;44.446;26.000;2022-10-16T14:36:57;8.67;;;4.87;;
24425;SDS011;12611;44.446;26.000;2022-10-16T14:39:28;14.33;;;5.53;;
24425;SDS011;12611;44.446;26.000;2022-10-16T14:41:56;11.20;;;5.70;;
24425;SDS011;12611;44.446;26.000;2022-10-16T14:44:27;11.10;;;5.47;;
24425;SDS011;12611;44.446;26.000;2022-10-16T14:46:58;11.83;;;6.03;;
24425;SDS011;12611;44.446;26.000;2022-10-16T14:49:37;14.60;;;6.17;;
24425;SDS011;12611;44.446;26.000;2022-10-16T14:52:08;12.07;;;6.63;;
24425;SDS011;12611;44.446;26.000;2022-10-16T14:54:37;19.77;;;8.53;;
24425;SDS011;12611;44.446;26.000;2022-10-16T14:57:12;15.30;;;8.53;;
24425;SDS011;12611;44.446;26.000;2022-10-16T14:59:44;17.07;;;9.10;;
24425;SDS011;12611;44.446;26.000;2022-10-16T15:02:16;11.87;;;6.83;;
24425;SDS011;12611;44.446;26.000;2022-10-16T15:04:51;9.80;;;5.90;;
24425;SDS011;12611;44.446;26.000;2022-10-16T15:07:20;12.87;;;6.77;;
24425;SDS011;12611;44.446;26.000;2022-10-16T15:09:49;10.73;;;6.10;;
24425;SDS011;12611;44.446;26.000;2022-10-16T15:12:17;14.37;;;6.73;;